sensor_id;sensor_type;location;lat;lon;timestamp;pressure;altitude;pressure_sealevel;temperature;humidity
38812;BME280;24553;51.640;-0.752;2023-02-16T00:01:01;101458.06;;;8.36;100.00
38812;BME280;24553;51.640;-0.752;2023-02-16T00:03:26;101447.66;;;8.35;100.00
38812;BME280;24553;51.640;-0.752;2023-02-16T00:05:52;101444.19;;;8.34;100.00
38812;BME280;24553;51.640;-0.752;2023-02-16T00:08:17;101445.25;;;8.41;100.00
38812;BME280;24553;51.640;-0.752;2023-02-16T00:10:44;101442.97;;;8.46;100.00
38812;BME280;24553;51.640;-0.752;2023-02-16T00:13:29;101443.50;;;8.50;100.00
38812;BME280;24553;51.640;-0.752;2023-02-16T00:16:17;101441.75;;;8.59;100.00
38812;BME280;24553;51.640;-0.752;2023-02-16T00:18:43;101435.94;;;8.55;100.00
38812;BME280;24553;51.640;-0.752;2023-02-16T00:21:09;101444.56;;;8.57;100.00
38812;BME280;24553;51.640;-0.752;2023-02-16T00:23:34;101440.00;;;8.67;100.00
38812;BME280;24553;51.640;-0.752;2023-02-16T00:25:59;101437.88;;;8.71;100.00
38812;BME280;24553;51.640;-0.752;2023-02-16T00:28:25;101441.34;;;8.71;100.00
38812;BME280;24553;51.640;-0.752;2023-02-16T00:30:50;101436.06;;;8.71;100.00
38812;BME280;24553;51.640;-0.752;2023-02-16T00:33:18;101433.78;;;8.77;100.00
38812;BME280;24553;51.640;-0.752;2023-02-16T00:35:44;101432.00;;;8.85;100.00
38812;BME280;24553;51.640;-0.752;2023-02-16T00:38:11;101424.25;;;8.84;100.00
38812;BME280;24553;51.640;-0.752;2023-02-16T00:40:37;101424.69;;;8.79;100.00
38812;BME280;24553;51.640;-0.752;2023-02-16T00:43:03;101423.56;;;8.82;100.00
38812;BME280;24553;51.640;-0.752;2023-02-16T00:45:29;101420.59;;;8.85;100.00
38812;BME280;24553;51.640;-0.752;2023-02-16T00:47:57;101414.16;;;8.87;100.00
38812;BME280;24553;51.640;-0.752;2023-02-16T00:50:26;101406.09;;;8.89;100.00
38812;BME280;24553;51.640;-0.752;2023-02-16T00:52:52;101402.91;;;8.85;100.00
38812;BME280;24553;51.640;-0.752;2023-02-16T00:55:22;101410.34;;;8.82;100.00
38812;BME280;24553;51.640;-0.752;2023-02-16T00:58:24;101406.19;;;8.79;100.00
38812;BME280;24553;51.640;-0.752;2023-02-16T01:00:57;101408.94;;;8.69;100.00
38812;BME280;24553;51.640;-0.752;2023-02-16T01:03:27;101412.91;;;8.65;100.00
38812;BME280;24553;51.640;-0.752;2023-02-16T01:05:53;101414.03;;;8.63;100.00
38812;BME280;24553;51.640;-0.752;2023-02-16T01:08:39;101420.38;;;8.70;100.00
38812;BME280;24553;51.640;-0.752;2023-02-16T01:11:23;101410.28;;;8.73;100.00
38812;BME280;24553;51.640;-0.752;2023-02-16T01:13:50;101415.41;;;8.75;100.00
38812;BME280;24553;51.640;-0.752;2023-02-16T01:16:26;101417.09;;;8.76;100.00
38812;BME280;24553;51.640;-0.752;2023-02-16T01:18:52;101418.41;;;8.80;100.00
38812;BME280;24553;51.640;-0.752;2023-02-16T01:21:18;101416.44;;;8.82;100.00
38812;BME280;24553;51.640;-0.752;2023-02-16T01:23:43;101412.06;;;8.91;100.00
38812;BME280;24553;51.640;-0.752;2023-02-16T01:26:15;101407.59;;;8.91;100.00
38812;BME280;24553;51.640;-0.752;2023-02-16T01:28:41;101418.78;;;9.11;100.00
38812;BME280;24553;51.640;-0.752;2023-02-16T01:31:09;101412.59;;;9.03;100.00
38812;BME280;24553;51.640;-0.752;2023-02-16T01:33:35;101408.81;;;9.05;100.00
38812;BME280;24553;51.640;-0.752;2023-02-16T01:36:00;101410.63;;;9.05;100.00
38812;BME280;24553;51.640;-0.752;2023-02-16T01:38:27;101410.63;;;9.05;100.00
38812;BME280;24553;51.640;-0.752;2023-02-16T01:43:56;101405.47;;;9.03;100.00
38812;BME280;24553;51.640;-0.752;2023-02-16T01:46:38;101398.69;;;9.01;100.00
38812;BME280;24553;51.640;-0.752;2023-02-16T01:49:14;101397.97;;;8.90;100.00
38812;BME280;24553;51.640;-0.752;2023-02-16T01:54:42;101393.19;;;8.86;100.00
38812;BME280;24553;51.640;-0.752;2023-02-16T02:02:22;101377.25;;;8.78;100.00
38812;BME280;24553;51.640;-0.752;2023-02-16T02:04:56;101372.44;;;8.73;100.00
38812;BME280;24553;51.640;-0.752;2023-02-16T02:07:53;101373.06;;;8.67;100.00
38812;BME280;24553;51.640;-0.752;2023-02-16T02:13:01;101367.94;;;8.65;100.00
38812;BME280;24553;51.640;-0.752;2023-02-16T02:15:30;101374.53;;;8.61;100.00
38812;BME280;24553;51.640;-0.752;2023-02-16T02:17:56;101384.78;;;8.64;100.00
38812;BME280;24553;51.640;-0.752;2023-02-16T02:23:54;101371.09;;;8.69;100.00
38812;BME280;24553;51.640;-0.752;2023-02-16T02:37:05;101350.25;;;8.66;100.00
38812;BME280;24553;51.640;-0.752;2023-02-16T02:42:32;101333.00;;;8.54;100.00
38812;BME280;24553;51.640;-0.752;2023-02-16T02:45:26;101329.44;;;8.63;100.00
38812;BME280;24553;51.640;-0.752;2023-02-16T02:47:53;101329.06;;;8.58;100.00
38812;BME280;24553;51.640;-0.752;2023-02-16T02:53:03;101320.81;;;8.35;100.00
38812;BME280;24553;51.640;-0.752;2023-02-16T02:55:31;101324.91;;;8.29;100.00
38812;BME280;24553;51.640;-0.752;2023-02-16T02:58:19;101321.28;;;8.30;100.00
38812;BME280;24553;51.640;-0.752;2023-02-16T03:01:05;101324.28;;;8.35;100.00
38812;BME280;24553;51.640;-0.752;2023-02-16T03:03:37;101310.63;;;8.40;100.00
38812;BME280;24553;51.640;-0.752;2023-02-16T03:08:36;101303.38;;;8.42;100.00
38812;BME280;24553;51.640;-0.752;2023-02-16T03:11:25;101289.84;;;8.45;100.00
38812;BME280;24553;51.640;-0.752;2023-02-16T03:14:23;101287.72;;;8.48;100.00
38812;BME280;24553;51.640;-0.752;2023-02-16T03:16:56;101280.25;;;8.44;100.00
38812;BME280;24553;51.640;-0.752;2023-02-16T03:19:41;101278.97;;;8.48;100.00
38812;BME280;24553;51.640;-0.752;2023-02-16T03:22:27;101278.66;;;8.51;100.00
38812;BME280;24553;51.640;-0.752;2023-02-16T03:25:11;101280.13;;;8.54;100.00
38812;BME280;24553;51.640;-0.752;2023-02-16T03:27:57;101290.56;;;8.55;100.00
38812;BME280;24553;51.640;-0.752;2023-02-16T03:30:44;101279.47;;;8.51;100.00
38812;BME280;24553;51.640;-0.752;2023-02-16T03:33:10;101285.63;;;8.60;100.00
38812;BME280;24553;51.640;-0.752;2023-02-16T03:35:36;101286.13;;;8.64;100.00
38812;BME280;24553;51.640;-0.752;2023-02-16T03:38:02;101294.25;;;8.62;100.00
38812;BME280;24553;51.640;-0.752;2023-02-16T03:40:27;101283.84;;;8.69;100.00
38812;BME280;24553;51.640;-0.752;2023-02-16T03:43:02;101275.44;;;8.73;100.00
38812;BME280;24553;51.640;-0.752;2023-02-16T03:45:28;101276.94;;;8.76;100.00
38812;BME280;24553;51.640;-0.752;2023-02-16T03:47:54;101271.63;;;8.68;100.00
38812;BME280;24553;51.640;-0.752;2023-02-16T03:50:20;101293.75;;;8.67;100.00
38812;BME280;24553;51.640;-0.752;2023-02-16T03:52:45;101276.25;;;8.74;100.00
38812;BME280;24553;51.640;-0.752;2023-02-16T03:55:11;101270.66;;;8.77;100.00
38812;BME280;24553;51.640;-0.752;2023-02-16T03:57:36;101280.41;;;8.77;100.00
38812;BME280;24553;51.640;-0.752;2023-02-16T04:00:02;101271.63;;;8.68;100.00
38812;BME280;24553;51.640;-0.752;2023-02-16T04:02:28;101267.97;;;8.69;100.00
38812;BME280;24553;51.640;-0.752;2023-02-16T04:04:53;101279.47;;;8.86;100.00
38812;BME280;24553;51.640;-0.752;2023-02-16T04:07:19;101273.03;;;8.88;100.00
38812;BME280;24553;51.640;-0.752;2023-02-16T04:09:44;101257.19;;;8.97;100.00
38812;BME280;24553;51.640;-0.752;2023-02-16T04:12:13;101247.88;;;8.92;100.00
38812;BME280;24553;51.640;-0.752;2023-02-16T04:14:57;101240.97;;;8.91;100.00
38812;BME280;24553;51.640;-0.752;2023-02-16T04:17:23;101245.56;;;8.81;100.00
38812;BME280;24553;51.640;-0.752;2023-02-16T04:19:48;101239.69;;;8.61;100.00
38812;BME280;24553;51.640;-0.752;2023-02-16T04:22:14;101251.53;;;8.83;100.00
38812;BME280;24553;51.640;-0.752;2023-02-16T04:24:39;101263.41;;;8.79;100.00
38812;BME280;24553;51.640;-0.752;2023-02-16T04:27:04;101247.38;;;8.81;100.00
38812;BME280;24553;51.640;-0.752;2023-02-16T04:29:30;101249.53;;;8.85;100.00
38812;BME280;24553;51.640;-0.752;2023-02-16T04:31:55;101246.06;;;8.85;100.00
38812;BME280;24553;51.640;-0.752;2023-02-16T04:34:21;101247.88;;;8.92;100.00
38812;BME280;24553;51.640;-0.752;2023-02-16T04:36:46;101239.81;;;8.94;100.00
38812;BME280;24553;51.640;-0.752;2023-02-16T04:39:12;101238.66;;;8.97;100.00
38812;BME280;24553;51.640;-0.752;2023-02-16T04:41:37;101226.75;;;9.01;100.00
38812;BME280;24553;51.640;-0.752;2023-02-16T04:44:02;101226.25;;;8.97;100.00
38812;BME280;24553;51.640;-0.752;2023-02-16T04:46:28;101217.50;;;8.97;100.00
38812;BME280;24553;51.640;-0.752;2023-02-16T04:48:54;101225.44;;;8.97;100.00
38812;BME280;24553;51.640;-0.752;2023-02-16T04:51:20;101218.78;;;8.84;100.00
38812;BME280;24553;51.640;-0.752;2023-02-16T04:53:46;101223.94;;;8.86;100.00
38812;BME280;24553;51.640;-0.752;2023-02-16T04:56:12;101222.72;;;8.72;100.00
38812;BME280;24553;51.640;-0.752;2023-02-16T04:58:37;101226.69;;;8.76;100.00
38812;BME280;24553;51.640;-0.752;2023-02-16T05:01:04;101224.72;;;8.78;100.00
38812;BME280;24553;51.640;-0.752;2023-02-16T05:03:29;101227.66;;;8.67;100.00
38812;BME280;24553;51.640;-0.752;2023-02-16T05:05:55;101227.03;;;8.73;100.00
38812;BME280;24553;51.640;-0.752;2023-02-16T05:08:20;101223.38;;;8.74;100.00
38812;BME280;24553;51.640;-0.752;2023-02-16T05:10:46;101231.50;;;8.81;100.00
38812;BME280;24553;51.640;-0.752;2023-02-16T05:13:31;101241.91;;;8.74;100.00
38812;BME280;24553;51.640;-0.752;2023-02-16T05:16:15;101233.97;;;8.74;100.00
38812;BME280;24553;51.640;-0.752;2023-02-16T05:18:40;101214.44;;;8.75;100.00
38812;BME280;24553;51.640;-0.752;2023-02-16T05:21:05;101224.41;;;8.81;100.00
38812;BME280;24553;51.640;-0.752;2023-02-16T05:23:58;101220.44;;;8.85;100.00
38812;BME280;24553;51.640;-0.752;2023-02-16T05:26:24;101220.78;;;8.90;100.00
38812;BME280;24553;51.640;-0.752;2023-02-16T05:28:49;101193.84;;;8.87;100.00
38812;BME280;24553;51.640;-0.752;2023-02-16T05:31:14;101198.31;;;8.94;100.00
38812;BME280;24553;51.640;-0.752;2023-02-16T05:33:40;101193.84;;;8.95;100.00
38812;BME280;24553;51.640;-0.752;2023-02-16T05:36:05;101202.25;;;8.90;100.00
38812;BME280;24553;51.640;-0.752;2023-02-16T05:38:31;101215.47;;;8.82;100.00
38812;BME280;24553;51.640;-0.752;2023-02-16T05:40:58;101215.13;;;8.77;100.00
38812;BME280;24553;51.640;-0.752;2023-02-16T05:43:23;101216.28;;;8.83;100.00
38812;BME280;24553;51.640;-0.752;2023-02-16T05:45:49;101210.50;;;8.79;100.00
38812;BME280;24553;51.640;-0.752;2023-02-16T05:48:14;101217.94;;;8.76;100.00
38812;BME280;24553;51.640;-0.752;2023-02-16T05:50:39;101205.91;;;8.89;100.00
38812;BME280;24553;51.640;-0.752;2023-02-16T05:53:05;101210.03;;;8.84;100.00
38812;BME280;24553;51.640;-0.752;2023-02-16T05:55:30;101205.56;;;8.84;100.00
38812;BME280;24553;51.640;-0.752;2023-02-16T05:57:55;101209.38;;;8.90;100.00
38812;BME280;24553;51.640;-0.752;2023-02-16T06:00:21;101201.09;;;8.93;100.00
38812;BME280;24553;51.640;-0.752;2023-02-16T06:02:46;101189.72;;;8.92;100.00
38812;BME280;24553;51.640;-0.752;2023-02-16T06:05:12;101184.41;;;8.92;100.00
38812;BME280;24553;51.640;-0.752;2023-02-16T06:07:37;101186.25;;;8.92;100.00
38812;BME280;24553;51.640;-0.752;2023-02-16T06:10:03;101188.75;;;8.93;100.00
38812;BME280;24553;51.640;-0.752;2023-02-16T06:12:28;101187.53;;;8.88;100.00
38812;BME280;24553;51.640;-0.752;2023-02-16T06:14:56;101194.84;;;8.86;100.00
38812;BME280;24553;51.640;-0.752;2023-02-16T06:17:22;101197.66;;;8.92;100.00
38812;BME280;24553;51.640;-0.752;2023-02-16T06:19:47;101192.34;;;8.92;100.00
38812;BME280;24553;51.640;-0.752;2023-02-16T06:22:12;101185.63;;;9.06;100.00
38812;BME280;24553;51.640;-0.752;2023-02-16T06:24:38;101175.53;;;9.10;100.00
38812;BME280;24553;51.640;-0.752;2023-02-16T06:27:03;101172.38;;;9.14;100.00
38812;BME280;24553;51.640;-0.752;2023-02-16T06:29:29;101160.81;;;9.07;100.00
38812;BME280;24553;51.640;-0.752;2023-02-16T06:31:54;101161.47;;;9.17;100.00
38812;BME280;24553;51.640;-0.752;2023-02-16T06:34:20;101159.81;;;9.16;100.00
38812;BME280;24553;51.640;-0.752;2023-02-16T06:36:45;101158.66;;;9.19;100.00
38812;BME280;24553;51.640;-0.752;2023-02-16T06:39:11;101155.03;;;9.20;100.00
38812;BME280;24553;51.640;-0.752;2023-02-16T06:41:36;101146.41;;;9.18;100.00
38812;BME280;24553;51.640;-0.752;2023-02-16T06:44:14;101144.25;;;9.13;100.00
38812;BME280;24553;51.640;-0.752;2023-02-16T06:46:41;101159.50;;;9.20;100.00
38812;BME280;24553;51.640;-0.752;2023-02-16T06:49:10;101145.75;;;9.16;100.00
38812;BME280;24553;51.640;-0.752;2023-02-16T06:51:36;101148.72;;;9.21;100.00
38812;BME280;24553;51.640;-0.752;2023-02-16T06:54:01;101147.41;;;9.25;100.00
38812;BME280;24553;51.640;-0.752;2023-02-16T06:56:27;101161.47;;;9.17;100.00
38812;BME280;24553;51.640;-0.752;2023-02-16T06:58:52;101158.34;;;9.22;100.00
38812;BME280;24553;51.640;-0.752;2023-02-16T07:01:17;101162.13;;;9.20;100.00
38812;BME280;24553;51.640;-0.752;2023-02-16T07:03:48;101165.44;;;9.22;100.00
38812;BME280;24553;51.640;-0.752;2023-02-16T07:06:14;101173.38;;;9.13;100.00
38812;BME280;24553;51.640;-0.752;2023-02-16T07:08:39;101163.63;;;9.14;100.00
38812;BME280;24553;51.640;-0.752;2023-02-16T07:11:05;101163.44;;;9.07;100.00
38812;BME280;24553;51.640;-0.752;2023-02-16T07:13:30;101164.75;;;9.03;100.00
38812;BME280;24553;51.640;-0.752;2023-02-16T07:15:55;101159.66;;;9.10;100.00
38812;BME280;24553;51.640;-0.752;2023-02-16T07:18:21;101166.91;;;9.08;100.00
38812;BME280;24553;51.640;-0.752;2023-02-16T07:20:46;101169.06;;;9.04;100.00
38812;BME280;24553;51.640;-0.752;2023-02-16T07:23:12;101160.94;;;9.06;100.00
38812;BME280;24553;51.640;-0.752;2023-02-16T07:25:37;101167.91;;;8.99;100.00
38812;BME280;24553;51.640;-0.752;2023-02-16T07:28:03;101170.22;;;8.93;100.00
38812;BME280;24553;51.640;-0.752;2023-02-16T07:30:28;101164.94;;;8.93;100.00
38812;BME280;24553;51.640;-0.752;2023-02-16T07:32:54;101165.41;;;9.05;100.00
38812;BME280;24553;51.640;-0.752;2023-02-16T07:35:19;101163.13;;;9.02;100.00
38812;BME280;24553;51.640;-0.752;2023-02-16T07:37:45;101169.22;;;9.11;100.00
38812;BME280;24553;51.640;-0.752;2023-02-16T07:40:11;101183.13;;;9.13;100.00
38812;BME280;24553;51.640;-0.752;2023-02-16T07:42:36;101176.19;;;9.04;100.00
38812;BME280;24553;51.640;-0.752;2023-02-16T07:45:02;101179.81;;;8.94;100.00
38812;BME280;24553;51.640;-0.752;2023-02-16T07:47:27;101181.16;;;9.07;100.00
38812;BME280;24553;51.640;-0.752;2023-02-16T07:49:52;101183.78;;;9.15;100.00
38812;BME280;24553;51.640;-0.752;2023-02-16T07:52:18;101183.47;;;9.18;100.00
38812;BME280;24553;51.640;-0.752;2023-02-16T07:54:43;101184.13;;;9.20;100.00
38812;BME280;24553;51.640;-0.752;2023-02-16T07:57:09;101184.78;;;9.22;100.00
38812;BME280;24553;51.640;-0.752;2023-02-16T07:59:34;101187.91;;;9.34;100.00
38812;BME280;24553;51.640;-0.752;2023-02-16T08:01:59;101191.38;;;9.34;100.00
38812;BME280;24553;51.640;-0.752;2023-02-16T08:04:25;101187.91;;;9.42;100.00
38812;BME280;24553;51.640;-0.752;2023-02-16T08:06:50;101186.44;;;9.39;100.00
38812;BME280;24553;51.640;-0.752;2023-02-16T08:09:16;101189.75;;;9.42;100.00
38812;BME280;24553;51.640;-0.752;2023-02-16T08:11:42;101182.47;;;9.44;100.00
38812;BME280;24553;51.640;-0.752;2023-02-16T08:14:07;101187.59;;;9.45;100.00
38812;BME280;24553;51.640;-0.752;2023-02-16T08:16:32;101182.47;;;9.44;100.00
38812;BME280;24553;51.640;-0.752;2023-02-16T08:18:59;101186.59;;;9.46;100.00
38812;BME280;24553;51.640;-0.752;2023-02-16T08:21:28;101183.97;;;9.46;100.00
38812;BME280;24553;51.640;-0.752;2023-02-16T08:24:02;101187.59;;;9.53;100.00
38812;BME280;24553;51.640;-0.752;2023-02-16T08:26:39;101179.16;;;9.50;100.00
38812;BME280;24553;51.640;-0.752;2023-02-16T08:29:06;101181.97;;;9.40;100.00
38812;BME280;24553;51.640;-0.752;2023-02-16T08:31:35;101187.09;;;9.42;100.00
38812;BME280;24553;51.640;-0.752;2023-02-16T08:34:02;101177.34;;;9.50;100.00
38812;BME280;24553;51.640;-0.752;2023-02-16T08:36:32;101173.03;;;9.41;100.00
38812;BME280;24553;51.640;-0.752;2023-02-16T08:38:58;101172.53;;;9.54;100.00
38812;BME280;24553;51.640;-0.752;2023-02-16T08:41:29;101183.59;;;9.57;100.00
38812;BME280;24553;51.640;-0.752;2023-02-16T08:43:55;101176.16;;;9.69;100.00
38812;BME280;24553;51.640;-0.752;2023-02-16T08:46:21;101178.13;;;9.75;100.00
38812;BME280;24553;51.640;-0.752;2023-02-16T08:48:47;101170.34;;;9.82;100.00
38812;BME280;24553;51.640;-0.752;2023-02-16T08:51:17;101176.78;;;9.88;100.00
38812;BME280;24553;51.640;-0.752;2023-02-16T08:53:44;101168.78;;;10.04;100.00
38812;BME280;24553;51.640;-0.752;2023-02-16T08:56:10;101167.75;;;10.13;100.00
38812;BME280;24553;51.640;-0.752;2023-02-16T08:58:36;101171.03;;;10.23;100.00
38812;BME280;24553;51.640;-0.752;2023-02-16T09:01:05;101171.72;;;10.17;100.00
38812;BME280;24553;51.640;-0.752;2023-02-16T09:03:33;101174.03;;;10.20;100.00
38812;BME280;24553;51.640;-0.752;2023-02-16T09:06:01;101172.56;;;10.18;100.00
38812;BME280;24553;51.640;-0.752;2023-02-16T09:08:27;101173.22;;;10.20;100.00
38812;BME280;24553;51.640;-0.752;2023-02-16T09:10:53;101173.38;;;10.18;100.00
38812;BME280;24553;51.640;-0.752;2023-02-16T09:13:18;101166.41;;;10.25;100.00
38812;BME280;24553;51.640;-0.752;2023-02-16T09:15:44;101171.69;;;10.25;100.00
38812;BME280;24553;51.640;-0.752;2023-02-16T09:18:12;101180.97;;;10.21;100.00
38812;BME280;24553;51.640;-0.752;2023-02-16T09:20:40;101175.69;;;10.21;100.00
38812;BME280;24553;51.640;-0.752;2023-02-16T09:23:07;101175.03;;;10.28;100.00
38812;BME280;24553;51.640;-0.752;2023-02-16T09:25:34;101173.84;;;10.22;100.00
38812;BME280;24553;51.640;-0.752;2023-02-16T09:28:00;101173.22;;;10.28;100.00
38812;BME280;24553;51.640;-0.752;2023-02-16T09:30:26;101172.34;;;10.36;100.00
38812;BME280;24553;51.640;-0.752;2023-02-16T09:32:52;101161.03;;;10.42;100.00
38812;BME280;24553;51.640;-0.752;2023-02-16T09:35:17;101164.47;;;10.51;100.00
38812;BME280;24553;51.640;-0.752;2023-02-16T09:37:42;101160.94;;;10.58;100.00
38812;BME280;24553;51.640;-0.752;2023-02-16T09:40:11;101165.22;;;10.67;100.00
38812;BME280;24553;51.640;-0.752;2023-02-16T09:45:22;101175.81;;;10.67;100.00
38812;BME280;24553;51.640;-0.752;2023-02-16T09:47:50;101178.72;;;10.81;100.00
38812;BME280;24553;51.640;-0.752;2023-02-16T09:55:24;101177.97;;;10.95;100.00
38812;BME280;24553;51.640;-0.752;2023-02-16T09:58:16;101181.22;;;11.05;100.00
38812;BME280;24553;51.640;-0.752;2023-02-16T10:00:48;101172.09;;;11.08;100.00
38812;BME280;24553;51.640;-0.752;2023-02-16T10:03:39;101172.78;;;11.25;100.00
38812;BME280;24553;51.640;-0.752;2023-02-16T10:09:16;101168.94;;;11.27;100.00
38812;BME280;24553;51.640;-0.752;2023-02-16T10:11:59;101175.66;;;11.38;100.00
38812;BME280;24553;51.640;-0.752;2023-02-16T10:14:49;101168.00;;;11.58;100.00
38812;BME280;24553;51.640;-0.752;2023-02-16T10:17:37;101162.69;;;11.58;100.00
38812;BME280;24553;51.640;-0.752;2023-02-16T10:20:12;101180.28;;;11.59;100.00
38812;BME280;24553;51.640;-0.752;2023-02-16T10:26:01;101189.00;;;11.68;100.00
38812;BME280;24553;51.640;-0.752;2023-02-16T10:28:46;101186.06;;;11.63;100.00
38812;BME280;24553;51.640;-0.752;2023-02-16T10:31:20;101184.63;;;11.75;100.00
38812;BME280;24553;51.640;-0.752;2023-02-16T10:42:20;101182.75;;;12.13;100.00
38812;BME280;24553;51.640;-0.752;2023-02-16T10:47:44;101186.22;;;11.99;100.00
38812;BME280;24553;51.640;-0.752;2023-02-16T10:50:25;101172.38;;;12.04;100.00
38812;BME280;24553;51.640;-0.752;2023-02-16T10:52:53;101179.59;;;12.25;100.00
38812;BME280;24553;51.640;-0.752;2023-02-16T10:55:20;101175.09;;;12.25;100.00
38812;BME280;24553;51.640;-0.752;2023-02-16T10:57:54;101173.00;;;12.20;100.00
38812;BME280;24553;51.640;-0.752;2023-02-16T11:00:28;101179.50;;;12.18;100.00
38812;BME280;24553;51.640;-0.752;2023-02-16T11:03:01;101186.78;;;12.24;100.00
38812;BME280;24553;51.640;-0.752;2023-02-16T11:05:36;101175.00;;;12.33;100.00
38812;BME280;24553;51.640;-0.752;2023-02-16T11:08:03;101176.41;;;12.29;100.00
38812;BME280;24553;51.640;-0.752;2023-02-16T11:10:48;101188.84;;;12.29;100.00
38812;BME280;24553;51.640;-0.752;2023-02-16T11:13:27;101178.22;;;12.29;100.00
38812;BME280;24553;51.640;-0.752;2023-02-16T11:16:03;101179.59;;;12.25;100.00
38812;BME280;24553;51.640;-0.752;2023-02-16T11:20:58;101184.00;;;12.32;100.00
38812;BME280;24553;51.640;-0.752;2023-02-16T11:23:31;101176.03;;;12.32;100.00
38812;BME280;24553;51.640;-0.752;2023-02-16T11:28:43;101180.25;;;12.27;100.00
38812;BME280;24553;51.640;-0.752;2023-02-16T11:31:36;101184.66;;;12.34;100.00
38812;BME280;24553;51.640;-0.752;2023-02-16T11:34:09;101193.06;;;12.23;100.00
38812;BME280;24553;51.640;-0.752;2023-02-16T11:36:37;101183.56;;;12.14;100.00
38812;BME280;24553;51.640;-0.752;2023-02-16T11:39:07;101182.19;;;12.03;100.00
38812;BME280;24553;51.640;-0.752;2023-02-16T11:44:26;101193.06;;;12.23;100.00
38812;BME280;24553;51.640;-0.752;2023-02-16T11:46:54;101199.69;;;12.27;100.00
38812;BME280;24553;51.640;-0.752;2023-02-16T11:49:29;101192.34;;;12.29;100.00
38812;BME280;24553;51.640;-0.752;2023-02-16T11:51:55;101190.31;;;12.31;100.00
38812;BME280;24553;51.640;-0.752;2023-02-16T11:54:21;101188.19;;;12.41;100.00
38812;BME280;24553;51.640;-0.752;2023-02-16T11:59:33;101185.75;;;12.25;100.00
38812;BME280;24553;51.640;-0.752;2023-02-16T12:07:47;101152.63;;;12.42;100.00
38812;BME280;24553;51.640;-0.752;2023-02-16T12:16:04;101147.41;;;12.34;100.00
38812;BME280;24553;51.640;-0.752;2023-02-16T12:21:45;101136.13;;;12.69;100.00
38812;BME280;24553;51.640;-0.752;2023-02-16T12:29:33;101120.94;;;12.62;100.00
38812;BME280;24553;51.640;-0.752;2023-02-16T12:32:24;101135.50;;;12.66;100.00
38812;BME280;24553;51.640;-0.752;2023-02-16T12:45:17;101139.22;;;12.72;100.00
38812;BME280;24553;51.640;-0.752;2023-02-16T12:50:34;101133.47;;;12.69;100.00
38812;BME280;24553;51.640;-0.752;2023-02-16T12:53:05;101133.91;;;12.72;100.00
38812;BME280;24553;51.640;-0.752;2023-02-16T12:55:38;101127.84;;;12.78;100.00
38812;BME280;24553;51.640;-0.752;2023-02-16T13:00:50;101113.72;;;12.78;100.00
38812;BME280;24553;51.640;-0.752;2023-02-16T13:05:50;101127.22;;;12.76;100.00
38812;BME280;24553;51.640;-0.752;2023-02-16T13:08:38;101131.16;;;12.80;100.00
38812;BME280;24553;51.640;-0.752;2023-02-16T13:11:10;101126.91;;;12.86;100.00
38812;BME280;24553;51.640;-0.752;2023-02-16T13:13:42;101128.41;;;12.95;100.00
38812;BME280;24553;51.640;-0.752;2023-02-16T13:16:30;101124.50;;;12.91;100.00
38812;BME280;24553;51.640;-0.752;2023-02-16T13:19:00;101130.09;;;13.03;100.00
38812;BME280;24553;51.640;-0.752;2023-02-16T13:29:40;101131.38;;;13.07;100.00
38812;BME280;24553;51.640;-0.752;2023-02-16T13:32:44;101139.13;;;13.02;100.00
38812;BME280;24553;51.640;-0.752;2023-02-16T13:35:49;101138.63;;;12.92;100.00
38812;BME280;24553;51.640;-0.752;2023-02-16T13:44:10;101140.25;;;13.14;100.00
38812;BME280;24553;51.640;-0.752;2023-02-16T13:46:43;101133.53;;;13.18;100.00
38812;BME280;24553;51.640;-0.752;2023-02-16T13:49:36;101130.38;;;13.29;100.00
38812;BME280;24553;51.640;-0.752;2023-02-16T13:52:05;101124.53;;;13.47;100.00
38812;BME280;24553;51.640;-0.752;2023-02-16T13:54:40;101120.25;;;13.46;100.00
38812;BME280;24553;51.640;-0.752;2023-02-16T13:57:13;101116.53;;;13.41;100.00
38812;BME280;24553;51.640;-0.752;2023-02-16T13:59:57;101110.16;;;13.35;100.00
38812;BME280;24553;51.640;-0.752;2023-02-16T14:02:55;101108.81;;;13.24;100.00
38812;BME280;24553;51.640;-0.752;2023-02-16T14:05:24;101103.66;;;13.23;100.00
38812;BME280;24553;51.640;-0.752;2023-02-16T14:18:53;101096.34;;;13.60;100.00
38812;BME280;24553;51.640;-0.752;2023-02-16T14:21:44;101090.03;;;13.67;100.00
38812;BME280;24553;51.640;-0.752;2023-02-16T14:24:31;101093.97;;;13.71;100.00
38812;BME280;24553;51.640;-0.752;2023-02-16T14:32:33;101081.19;;;14.02;100.00
38812;BME280;24553;51.640;-0.752;2023-02-16T14:37:37;101074.75;;;14.31;100.00
38812;BME280;24553;51.640;-0.752;2023-02-16T14:40:12;101085.88;;;13.93;100.00
38812;BME280;24553;51.640;-0.752;2023-02-16T14:42:45;101076.34;;;14.18;100.00
38812;BME280;24553;51.640;-0.752;2023-02-16T14:54:13;101073.66;;;14.18;100.00
38812;BME280;24553;51.640;-0.752;2023-02-16T15:01:59;101067.28;;;14.13;100.00
38812;BME280;24553;51.640;-0.752;2023-02-16T15:04:30;101068.53;;;14.10;100.00
38812;BME280;24553;51.640;-0.752;2023-02-16T15:07:00;101076.72;;;14.09;100.00
38812;BME280;24553;51.640;-0.752;2023-02-16T15:09:32;101078.34;;;14.03;100.00
38812;BME280;24553;51.640;-0.752;2023-02-16T15:12:10;101080.03;;;14.17;100.00
38812;BME280;24553;51.640;-0.752;2023-02-16T15:14:53;101079.25;;;14.30;100.00
38812;BME280;24553;51.640;-0.752;2023-02-16T15:17:37;101081.94;;;14.37;100.00
38812;BME280;24553;51.640;-0.752;2023-02-16T15:22:52;101078.47;;;14.43;100.00
38812;BME280;24553;51.640;-0.752;2023-02-16T15:25:34;101090.78;;;14.44;100.00
38812;BME280;24553;51.640;-0.752;2023-02-16T15:28:01;101078.81;;;14.20;100.00
38812;BME280;24553;51.640;-0.752;2023-02-16T15:30:36;101078.59;;;14.15;100.00
38812;BME280;24553;51.640;-0.752;2023-02-16T15:33:31;101086.03;;;13.85;100.00